createdAt,value
2022-10-23T00:01:38.120Z,11.55
2022-10-23T00:04:08.500Z,11.47
2022-10-23T00:06:37.594Z,11.54
2022-10-23T00:09:07.934Z,11.59
2022-10-23T00:11:36.498Z,11.47
2022-10-23T00:14:08.071Z,11.53
2022-10-23T00:16:39.074Z,11.70
2022-10-23T00:19:08.469Z,12.07
2022-10-23T00:21:36.475Z,12.01
2022-10-23T00:24:04.635Z,12.32
2022-10-23T00:26:32.780Z,12.37
2022-10-23T00:29:00.790Z,12.48
2022-10-23T00:31:28.777Z,12.57
2022-10-23T00:33:58.094Z,12.21
2022-10-23T00:36:25.998Z,12.30
2022-10-23T00:38:53.971Z,12.21
2022-10-23T00:41:24.135Z,12.03
2022-10-23T00:43:58.036Z,12.06
2022-10-23T00:46:26.373Z,12.33
2022-10-23T00:48:54.523Z,12.64
2022-10-23T00:51:24.334Z,12.84
2022-10-23T00:54:01.217Z,12.47
2022-10-23T00:56:45.494Z,13.10
2022-10-23T00:59:14.264Z,12.90
2022-10-23T01:01:42.910Z,13.09
2022-10-23T01:04:11.731Z,12.10
2022-10-23T01:06:46.592Z,10.90
2022-10-23T01:09:20.287Z,10.25
2022-10-23T01:11:54.363Z,9.84
2022-10-23T01:14:28.705Z,9.50
2022-10-23T01:17:05.442Z,9.41
2022-10-23T01:19:50.809Z,9.37
2022-10-23T01:22:39.682Z,9.31
2022-10-23T01:25:24.955Z,9.29
2022-10-23T01:28:00.414Z,9.20
2022-10-23T01:30:29.953Z,9.31
2022-10-23T01:33:03.377Z,9.43
2022-10-23T01:35:37.936Z,9.61
2022-10-23T01:38:10.800Z,9.71
2022-10-23T01:40:45.960Z,9.74
2022-10-23T01:43:21.478Z,9.92
2022-10-23T01:45:54.358Z,9.95
2022-10-23T01:48:26.621Z,10.13
2022-10-23T01:50:57.051Z,10.16
2022-10-23T01:53:30.825Z,10.29
2022-10-23T01:56:00.361Z,10.39
2022-10-23T01:58:32.720Z,10.58
2022-10-23T02:01:05.054Z,10.62
2022-10-23T02:03:36.707Z,10.68
2022-10-23T02:06:04.775Z,10.72
2022-10-23T02:08:33.163Z,10.90
2022-10-23T02:11:08.349Z,11.02
2022-10-23T02:13:47.925Z,11.12
2022-10-23T02:16:24.420Z,11.30
2022-10-23T02:18:58.495Z,11.40
2022-10-23T02:21:32.920Z,11.54
2022-10-23T02:24:04.553Z,11.62
2022-10-23T02:26:37.993Z,11.84
2022-10-23T02:29:13.719Z,11.93
2022-10-23T02:31:42.166Z,12.09
2022-10-23T02:34:10.186Z,12.19
2022-10-23T02:36:38.625Z,12.37
2022-10-23T02:39:06.720Z,12.55
2022-10-23T02:41:42.527Z,12.79
2022-10-23T02:44:34.499Z,12.78
2022-10-23T02:47:14.731Z,12.21
2022-10-23T02:49:50.172Z,11.93
2022-10-23T02:52:23.103Z,11.95
2022-10-23T02:55:18.173Z,11.83
2022-10-23T02:57:52.356Z,12.01
2022-10-23T03:00:23.148Z,12.02
2022-10-23T03:02:57.858Z,12.16
2022-10-23T03:05:29.387Z,12.27
2022-10-23T03:07:57.350Z,12.12
2022-10-23T03:10:25.690Z,11.78
2022-10-23T03:12:53.747Z,11.32
2022-10-23T03:15:23.091Z,11.29
2022-10-23T03:17:51.045Z,11.28
2022-10-23T03:20:19.618Z,11.03
2022-10-23T03:22:47.651Z,10.94
2022-10-23T03:25:15.871Z,10.93
2022-10-23T03:27:44.119Z,11.07
2022-10-23T03:30:13.079Z,11.25
2022-10-23T03:32:42.549Z,11.31
2022-10-23T03:35:10.786Z,11.36
2022-10-23T03:37:38.924Z,11.66
2022-10-23T03:40:08.045Z,11.60
2022-10-23T03:42:35.979Z,12.48
2022-10-23T03:45:04.140Z,12.80
2022-10-23T03:47:35.084Z,13.01
2022-10-23T03:50:04.888Z,13.24
2022-10-23T03:52:32.769Z,13.13
2022-10-23T03:55:00.867Z,13.16
2022-10-23T03:57:28.935Z,13.30
2022-10-23T03:59:56.949Z,13.49
2022-10-23T04:02:25.035Z,13.73
2022-10-23T04:04:53.344Z,13.71
2022-10-23T04:07:22.632Z,14.04
2022-10-23T04:09:50.662Z,14.15
2022-10-23T04:12:18.831Z,14.39
2022-10-23T04:14:46.846Z,14.27
2022-10-23T04:17:14.896Z,14.06
2022-10-23T04:19:42.972Z,14.08
2022-10-23T04:22:10.861Z,14.10
2022-10-23T04:24:45.461Z,14.09
2022-10-23T04:27:13.787Z,14.18
2022-10-23T04:29:42.014Z,14.29
2022-10-23T04:32:09.974Z,14.25
2022-10-23T04:34:37.942Z,14.38
2022-10-23T04:37:06.139Z,14.43
2022-10-23T04:39:34.071Z,14.30
2022-10-23T04:42:03.402Z,14.18
2022-10-23T04:44:31.371Z,13.88
2022-10-23T04:46:59.249Z,13.85
2022-10-23T04:49:27.130Z,13.76
2022-10-23T04:51:55.083Z,13.71
2022-10-23T04:54:23.104Z,13.83
2022-10-23T04:56:51.012Z,13.98
2022-10-23T04:59:20.714Z,14.04
2022-10-23T05:01:48.731Z,14.18
2022-10-23T05:04:16.746Z,14.21
2022-10-23T05:06:44.811Z,14.45
2022-10-23T05:09:12.782Z,14.45
2022-10-23T05:11:40.774Z,14.52
2022-10-23T05:14:08.807Z,14.49
2022-10-23T05:16:49.920Z,14.48
2022-10-23T05:19:26.451Z,14.36
2022-10-23T05:21:58.335Z,14.49
2022-10-23T05:24:27.597Z,14.55
2022-10-23T05:26:55.534Z,14.37
2022-10-23T05:29:24.539Z,14.28
2022-10-23T05:31:58.436Z,14.04
2022-10-23T05:34:28.266Z,13.63
2022-10-23T05:36:56.808Z,13.23
2022-10-23T05:39:25.130Z,12.93
2022-10-23T05:41:53.093Z,12.86
2022-10-23T05:44:20.972Z,12.97
2022-10-23T05:46:48.875Z,13.13
2022-10-23T05:49:18.223Z,13.36
2022-10-23T05:51:46.279Z,13.60
2022-10-23T05:54:14.120Z,13.55
2022-10-23T05:56:42.618Z,13.65
2022-10-23T05:59:11.031Z,13.97
2022-10-23T06:01:39.191Z,14.09
2022-10-23T06:04:07.434Z,14.41
2022-10-23T06:06:37.611Z,14.84
2022-10-23T06:09:05.926Z,15.12
2022-10-23T06:11:33.794Z,15.45
2022-10-23T06:14:01.879Z,15.93
2022-10-23T06:16:30.000Z,16.13
2022-10-23T06:18:58.573Z,16.41
2022-10-23T06:21:26.536Z,16.68
2022-10-23T06:23:56.595Z,16.94
2022-10-23T06:26:24.498Z,17.19
2022-10-23T06:28:52.595Z,17.12
2022-10-23T06:31:23.644Z,16.91
2022-10-23T06:33:51.534Z,17.05
2022-10-23T06:36:19.712Z,17.13
2022-10-23T06:38:47.652Z,17.01
2022-10-23T06:41:19.225Z,16.85
2022-10-23T06:43:48.857Z,16.80
2022-10-23T06:46:16.814Z,17.02
2022-10-23T06:48:45.158Z,17.11
2022-10-23T06:51:18.268Z,17.26
2022-10-23T06:53:46.906Z,17.61
2022-10-23T06:56:16.170Z,17.72
2022-10-23T06:58:44.049Z,17.86
2022-10-23T07:01:14.207Z,18.02
2022-10-23T07:03:42.277Z,18.23
2022-10-23T07:06:12.213Z,18.16
2022-10-23T07:08:40.477Z,18.36
2022-10-23T07:11:10.531Z,18.36
2022-10-23T07:13:40.819Z,18.20
2022-10-23T07:16:16.782Z,18.41
2022-10-23T07:18:45.648Z,18.51
2022-10-23T07:21:13.951Z,18.57
2022-10-23T07:23:41.897Z,18.57
2022-10-23T07:26:11.785Z,18.71
2022-10-23T07:28:42.576Z,18.76
2022-10-23T07:31:11.486Z,18.30
2022-10-23T07:33:39.857Z,18.87
2022-10-23T07:36:10.570Z,18.44
2022-10-23T07:38:38.575Z,19.11
2022-10-23T07:41:08.988Z,19.09
2022-10-23T07:43:41.460Z,19.26
2022-10-23T07:46:10.524Z,19.04
2022-10-23T07:48:39.253Z,18.99
2022-10-23T07:51:10.861Z,18.97
2022-10-23T07:53:39.620Z,19.37
2022-10-23T07:56:15.384Z,19.68
2022-10-23T07:58:45.017Z,19.89
2022-10-23T08:01:20.034Z,19.88
2022-10-23T08:03:48.072Z,19.93
2022-10-23T08:06:16.121Z,19.93
2022-10-23T08:11:15.315Z,19.59
2022-10-23T08:13:45.205Z,19.52
2022-10-23T08:16:13.476Z,19.83
2022-10-23T08:18:42.828Z,20.10
2022-10-23T08:21:11.319Z,20.19
2022-10-23T08:23:39.439Z,19.67
2022-10-23T08:26:08.160Z,20.27
2022-10-23T08:28:36.880Z,20.16
2022-10-23T08:31:13.657Z,20.31
2022-10-23T08:33:41.893Z,20.47
2022-10-23T08:36:18.427Z,20.59
2022-10-23T08:38:46.639Z,20.64
2022-10-23T08:41:25.991Z,20.68
2022-10-23T08:43:58.658Z,20.81
2022-10-23T08:46:31.458Z,20.75
2022-10-23T08:49:18.270Z,20.77
2022-10-23T08:51:50.001Z,20.72
2022-10-23T08:54:22.774Z,20.65
2022-10-23T08:56:55.670Z,20.78
2022-10-23T08:59:29.222Z,21.02
2022-10-23T09:02:03.565Z,21.03
2022-10-23T09:04:31.855Z,21.07
2022-10-23T09:10:01.687Z,21.41
2022-10-23T09:12:32.091Z,21.48
2022-10-23T09:15:18.581Z,21.32
2022-10-23T09:17:49.043Z,21.34
2022-10-23T09:20:22.543Z,21.42
2022-10-23T09:22:54.301Z,21.70
2022-10-23T09:25:25.271Z,21.64
2022-10-23T09:27:56.710Z,21.83
2022-10-23T09:30:28.307Z,22.18
2022-10-23T09:32:57.656Z,22.33
2022-10-23T09:35:28.090Z,22.18
2022-10-23T09:37:56.373Z,22.16
2022-10-23T09:40:31.087Z,22.08
2022-10-23T09:43:01.746Z,22.01
2022-10-23T09:45:33.181Z,22.21
2022-10-23T09:48:15.679Z,22.29
2022-10-23T09:50:49.464Z,22.46
2022-10-23T09:53:23.278Z,22.36
2022-10-23T09:55:56.965Z,22.50
2022-10-23T09:58:31.641Z,22.61
2022-10-23T10:00:59.762Z,22.73
2022-10-23T10:03:29.118Z,22.72
2022-10-23T10:05:59.387Z,22.61
2022-10-23T10:08:37.472Z,22.56
2022-10-23T10:11:13.184Z,22.29
2022-10-23T10:14:03.656Z,22.46
2022-10-23T10:16:43.846Z,22.39
2022-10-23T10:19:24.631Z,22.67
2022-10-23T10:22:02.592Z,22.46
2022-10-23T10:24:37.620Z,22.57
2022-10-23T10:27:15.642Z,22.66
2022-10-23T10:29:55.140Z,22.56
2022-10-23T10:32:36.781Z,22.62
2022-10-23T10:35:20.533Z,22.88
2022-10-23T10:38:02.217Z,23.15
2022-10-23T10:40:35.365Z,22.98
2022-10-23T10:43:36.667Z,22.89
2022-10-23T10:46:13.607Z,22.59
2022-10-23T10:48:49.080Z,22.28
2022-10-23T10:51:25.432Z,22.38
2022-10-23T10:54:09.885Z,22.52
2022-10-23T10:56:42.953Z,22.83
2022-10-23T10:59:17.436Z,23.03
2022-10-23T11:01:51.999Z,22.85
2022-10-23T11:04:29.515Z,22.48
2022-10-23T11:07:00.906Z,22.45
2022-10-23T11:09:33.520Z,22.55
2022-10-23T11:12:01.607Z,22.71
2022-10-23T11:14:34.139Z,22.79
2022-10-23T11:17:08.970Z,22.58
2022-10-23T11:19:42.748Z,23.16
2022-10-23T11:22:20.525Z,23.10
2022-10-23T11:25:21.405Z,22.99
2022-10-23T11:28:04.385Z,23.00
2022-10-23T11:30:44.309Z,22.92
2022-10-23T11:34:00.530Z,22.83
2022-10-23T11:36:44.036Z,22.67
2022-10-23T11:39:29.570Z,22.84
2022-10-23T11:41:59.956Z,22.69
2022-10-23T11:44:43.886Z,22.69
2022-10-23T11:47:36.453Z,22.51
2022-10-23T11:50:25.007Z,22.30
2022-10-23T11:53:16.192Z,22.66
2022-10-23T11:56:00.872Z,22.81
2022-10-23T11:58:41.589Z,22.81
2022-10-23T12:01:24.430Z,22.57
2022-10-23T12:03:55.529Z,22.73
2022-10-23T12:06:28.737Z,22.99
2022-10-23T12:09:01.161Z,23.02
2022-10-23T12:11:48.042Z,22.82
2022-10-23T12:14:31.004Z,22.54
2022-10-23T12:16:59.045Z,22.71
2022-10-23T12:19:28.572Z,22.65
2022-10-23T12:21:59.716Z,22.75
2022-10-23T12:24:40.487Z,22.73
2022-10-23T12:27:23.748Z,22.72
2022-10-23T12:30:14.535Z,22.86
2022-10-23T12:33:05.815Z,22.84
2022-10-23T12:35:59.469Z,22.70
2022-10-23T12:38:33.883Z,22.64
2022-10-23T12:41:13.944Z,22.79
2022-10-23T12:43:45.047Z,22.91
2022-10-23T12:46:30.233Z,22.53
2022-10-23T12:48:59.579Z,22.59
2022-10-23T12:51:29.260Z,22.55
2022-10-23T12:53:57.298Z,22.37
2022-10-23T12:56:28.604Z,22.38
2022-10-23T12:59:01.722Z,21.93
2022-10-23T13:01:31.711Z,22.16
2022-10-23T13:04:03.808Z,22.38
2022-10-23T13:06:32.570Z,22.37
2022-10-23T13:09:00.824Z,22.25
2022-10-23T13:11:29.534Z,22.16
2022-10-23T13:13:57.587Z,22.01
2022-10-23T13:16:28.090Z,22.04
2022-10-23T13:18:56.006Z,22.09
2022-10-23T13:21:26.176Z,22.19
2022-10-23T13:23:55.009Z,22.23
2022-10-23T13:26:31.653Z,22.34
2022-10-23T13:29:07.396Z,22.40
2022-10-23T13:31:38.174Z,22.33
2022-10-23T13:34:19.450Z,22.48
2022-10-23T13:36:53.866Z,22.48
2022-10-23T13:39:26.201Z,22.54
2022-10-23T13:41:54.682Z,22.61
2022-10-23T13:44:24.190Z,22.50
2022-10-23T13:46:53.903Z,22.49
2022-10-23T13:49:21.855Z,22.43
2022-10-23T13:51:52.175Z,22.58
2022-10-23T13:54:22.023Z,22.65
2022-10-23T13:56:50.323Z,22.62
2022-10-23T13:59:19.103Z,22.58
2022-10-23T14:01:48.330Z,22.55
2022-10-23T14:04:19.111Z,22.34
2022-10-23T14:06:46.998Z,22.25
2022-10-23T14:09:19.219Z,22.24
2022-10-23T14:11:47.852Z,22.02
2022-10-23T14:14:15.716Z,22.03
2022-10-23T14:16:43.724Z,21.94
2022-10-23T14:19:12.316Z,21.73
2022-10-23T14:21:41.550Z,21.61
2022-10-23T14:24:10.524Z,21.72
2022-10-23T14:26:38.478Z,21.73
2022-10-23T14:29:10.206Z,21.58
2022-10-23T14:31:41.909Z,21.41
2022-10-23T14:34:10.050Z,21.26
2022-10-23T14:36:49.486Z,21.34
2022-10-23T14:39:19.941Z,21.29
2022-10-23T14:41:48.663Z,21.24
2022-10-23T14:44:16.631Z,21.20
2022-10-23T14:46:44.641Z,21.23
2022-10-23T14:49:12.545Z,21.14
2022-10-23T14:51:40.471Z,20.98
2022-10-23T14:54:09.120Z,21.07
2022-10-23T14:56:40.888Z,20.99
2022-10-23T14:59:10.888Z,20.95
2022-10-23T15:01:43.785Z,20.85
2022-10-23T15:04:15.732Z,20.87
2022-10-23T15:06:43.951Z,20.85
2022-10-23T15:09:12.061Z,20.77
2022-10-23T15:11:41.473Z,20.77
2022-10-23T15:14:09.356Z,20.73
2022-10-23T15:16:41.440Z,20.72
2022-10-23T15:19:13.593Z,20.63
2022-10-23T15:21:45.294Z,20.62
2022-10-23T15:24:13.222Z,20.55
2022-10-23T15:26:43.289Z,20.40
2022-10-23T15:29:12.383Z,20.54
2022-10-23T15:31:46.935Z,20.50
2022-10-23T15:34:17.248Z,20.47
2022-10-23T15:36:47.059Z,20.35
2022-10-23T15:39:18.544Z,20.44
2022-10-23T15:41:48.085Z,20.52
2022-10-23T15:44:18.094Z,20.46
2022-10-23T15:46:47.428Z,20.38
2022-10-23T15:49:15.829Z,20.28
2022-10-23T15:51:43.830Z,20.28
2022-10-23T15:54:16.604Z,20.21
2022-10-23T15:56:45.142Z,20.17
2022-10-23T15:59:14.996Z,20.15
2022-10-23T16:01:43.441Z,20.06
2022-10-23T16:04:11.455Z,20.03
2022-10-23T16:06:39.670Z,19.96
2022-10-23T16:09:07.736Z,19.92
2022-10-23T16:11:38.065Z,19.81
2022-10-23T16:14:07.081Z,19.21
2022-10-23T16:16:36.300Z,19.63
2022-10-23T16:19:05.719Z,19.49
2022-10-23T16:21:36.001Z,18.97
2022-10-23T16:24:07.154Z,19.30
2022-10-23T16:26:35.861Z,19.17
2022-10-23T16:29:06.492Z,19.17
2022-10-23T16:31:36.251Z,19.26
2022-10-23T16:34:06.828Z,19.02
2022-10-23T16:36:35.502Z,18.95
2022-10-23T16:39:04.071Z,18.98
2022-10-23T16:41:32.145Z,19.03
2022-10-23T16:44:00.390Z,19.01
2022-10-23T16:46:28.550Z,18.48
2022-10-23T16:48:58.188Z,18.95
2022-10-23T16:51:27.816Z,19.08
2022-10-23T16:53:56.440Z,19.12
2022-10-23T16:56:27.920Z,19.09
2022-10-23T16:58:56.692Z,19.21
2022-10-23T17:01:27.304Z,19.25
2022-10-23T17:03:57.639Z,19.26
2022-10-23T17:06:27.778Z,19.28
2022-10-23T17:08:56.604Z,19.29
2022-10-23T17:11:26.520Z,18.70
2022-10-23T17:13:59.196Z,19.23
2022-10-23T17:16:29.210Z,19.19
2022-10-23T17:18:58.756Z,19.21
2022-10-23T17:21:26.696Z,19.13
2022-10-23T17:23:54.639Z,19.10
2022-10-23T17:26:23.598Z,19.16
2022-10-23T17:28:52.160Z,19.19
2022-10-23T17:31:22.275Z,19.04
2022-10-23T17:33:52.602Z,19.07
2022-10-23T17:36:22.931Z,18.78
2022-10-23T17:38:50.917Z,18.42
2022-10-23T17:41:20.864Z,18.17
2022-10-23T17:43:49.445Z,17.88
2022-10-23T17:46:19.650Z,17.81
2022-10-23T17:48:47.625Z,17.84
2022-10-23T17:51:17.425Z,17.78
2022-10-23T17:53:50.414Z,17.91
2022-10-23T17:56:20.321Z,17.80
2022-10-23T17:58:48.405Z,17.75
2022-10-23T18:01:18.914Z,17.62
2022-10-23T18:03:46.936Z,17.47
2022-10-23T18:06:17.962Z,17.24
2022-10-23T18:08:48.383Z,17.11
2022-10-23T18:11:17.518Z,17.15
2022-10-23T18:13:46.422Z,17.02
2022-10-23T18:16:15.599Z,16.99
2022-10-23T18:18:48.081Z,16.93
2022-10-23T18:21:17.356Z,16.98
2022-10-23T18:23:45.331Z,16.93
2022-10-23T18:26:17.842Z,16.82
2022-10-23T18:28:46.075Z,16.54
2022-10-23T18:31:15.391Z,16.11
2022-10-23T18:33:43.703Z,15.74
2022-10-23T18:36:16.641Z,15.66
2022-10-23T18:38:44.790Z,15.54
2022-10-23T18:41:12.991Z,15.41
2022-10-23T18:43:44.175Z,15.43
2022-10-23T18:46:12.907Z,15.52
2022-10-23T18:48:41.389Z,15.39
2022-10-23T18:51:15.840Z,15.45
2022-10-23T18:53:47.007Z,15.36
2022-10-23T18:56:16.432Z,15.43
2022-10-23T18:58:45.771Z,15.31
2022-10-23T19:01:13.923Z,15.54
2022-10-23T19:03:42.235Z,15.59
2022-10-23T19:06:10.684Z,15.52
2022-10-23T19:08:39.173Z,15.32
2022-10-23T19:11:09.825Z,15.30
2022-10-23T19:13:40.427Z,15.56
2022-10-23T19:16:14.395Z,15.55
2022-10-23T19:18:47.065Z,15.61
2022-10-23T19:21:15.674Z,15.53
2022-10-23T19:23:44.653Z,15.38
2022-10-23T19:26:14.342Z,15.33
2022-10-23T19:28:45.751Z,15.24
2022-10-23T19:31:15.829Z,15.14
2022-10-23T19:33:43.763Z,15.08
2022-10-23T19:36:14.271Z,15.00
2022-10-23T19:38:42.796Z,14.82
2022-10-23T19:41:10.941Z,14.96
2022-10-23T19:43:39.028Z,14.58
2022-10-23T19:46:11.010Z,14.41
2022-10-23T19:48:44.687Z,14.89
2022-10-23T19:51:13.982Z,14.92
2022-10-23T19:53:42.903Z,14.74
2022-10-23T19:56:12.806Z,14.82
2022-10-23T19:58:41.542Z,14.74
2022-10-23T20:01:11.799Z,14.86
2022-10-23T20:03:42.387Z,14.58
2022-10-23T20:06:11.701Z,14.88
2022-10-23T20:08:39.740Z,14.82
2022-10-23T20:11:08.211Z,14.82
2022-10-23T20:13:36.333Z,14.63
2022-10-23T20:16:04.506Z,14.83
2022-10-23T20:18:32.723Z,14.37
2022-10-23T20:21:03.668Z,14.82
2022-10-23T20:23:31.573Z,14.95
2022-10-23T20:26:05.747Z,14.93
2022-10-23T20:28:34.056Z,14.97
2022-10-23T20:31:08.537Z,14.95
2022-10-23T20:33:36.689Z,14.80
2022-10-23T20:36:08.596Z,14.69
2022-10-23T20:38:37.143Z,14.40
2022-10-23T20:41:05.931Z,14.45
2022-10-23T20:43:34.818Z,14.38
2022-10-23T20:46:04.979Z,14.43
2022-10-23T20:48:35.859Z,14.50
2022-10-23T20:51:05.712Z,14.37
2022-10-23T20:53:35.219Z,14.45
2022-10-23T20:56:06.668Z,14.21
2022-10-23T20:58:34.699Z,14.39
2022-10-23T21:01:06.857Z,14.47
2022-10-23T21:03:34.893Z,14.42
2022-10-23T21:06:09.903Z,14.37
2022-10-23T21:08:38.664Z,14.34
2022-10-23T21:11:08.054Z,14.16
2022-10-23T21:13:35.955Z,14.00
2022-10-23T21:16:13.751Z,13.93
2022-10-23T21:18:46.140Z,13.41
2022-10-23T21:21:19.369Z,13.61
2022-10-23T21:23:48.382Z,13.64
2022-10-23T21:26:17.426Z,13.52
2022-10-23T21:28:55.797Z,13.55
2022-10-23T21:31:29.248Z,13.72
2022-10-23T21:33:57.298Z,13.62
2022-10-23T21:36:27.524Z,13.56
2022-10-23T21:38:58.297Z,13.81
2022-10-23T21:41:27.993Z,13.85
2022-10-23T21:43:58.009Z,13.95
2022-10-23T21:46:27.413Z,13.93
2022-10-23T21:48:55.383Z,13.87
2022-10-23T21:51:25.330Z,13.79
2022-10-23T21:53:55.255Z,13.85
2022-10-23T21:56:30.483Z,13.72
2022-10-23T21:58:59.310Z,13.58
2022-10-23T22:01:27.889Z,13.10
2022-10-23T22:03:56.833Z,13.49
2022-10-23T22:06:26.885Z,13.41
2022-10-23T22:08:57.524Z,12.96
2022-10-23T22:11:26.182Z,12.62
2022-10-23T22:13:54.492Z,12.34
2022-10-23T22:16:22.421Z,12.15
2022-10-23T22:18:50.562Z,12.05
2022-10-23T22:21:21.307Z,12.05
2022-10-23T22:23:49.963Z,11.97
2022-10-23T22:26:24.110Z,11.82
2022-10-23T22:28:53.840Z,11.97
2022-10-23T22:31:24.373Z,12.09
2022-10-23T22:33:52.587Z,11.66
2022-10-23T22:36:21.032Z,11.92
2022-10-23T22:38:49.171Z,11.88
2022-10-23T22:41:17.644Z,11.88
2022-10-23T22:43:47.159Z,11.82
2022-10-23T22:46:16.446Z,11.79
2022-10-23T22:48:44.783Z,11.66
2022-10-23T22:51:14.100Z,11.62
2022-10-23T22:53:42.342Z,11.09
2022-10-23T22:56:13.179Z,11.50
2022-10-23T22:58:41.564Z,11.48
2022-10-23T23:01:15.123Z,11.22
2022-10-23T23:03:43.909Z,11.38
2022-10-23T23:06:12.639Z,11.36
2022-10-23T23:08:41.812Z,11.48
2022-10-23T23:11:12.572Z,10.87
2022-10-23T23:13:41.781Z,11.14
2022-10-23T23:16:19.157Z,11.41
2022-10-23T23:18:47.494Z,11.55
2022-10-23T23:21:16.171Z,11.58
2022-10-23T23:23:44.159Z,11.56
2022-10-23T23:26:12.416Z,11.59
2022-10-23T23:28:40.323Z,11.71
2022-10-23T23:31:13.797Z,11.76
2022-10-23T23:33:41.780Z,11.93
2022-10-23T23:36:12.563Z,12.03
2022-10-23T23:38:41.046Z,12.13
2022-10-23T23:41:13.725Z,11.93
2022-10-23T23:43:42.037Z,11.96
2022-10-23T23:46:12.353Z,11.80
2022-10-23T23:48:42.364Z,11.88
2022-10-23T23:51:10.393Z,11.85
2022-10-23T23:53:38.394Z,11.79
2022-10-23T23:56:07.912Z,11.81
2022-10-23T23:58:35.984Z,11.84
